sensor_id;sensor_type;location;lat;lon;timestamp;P1;durP1;ratioP1;P2;durP2;ratioP2
49592;SDS011;35499;51.482;4.264;2022-07-19T06:39:51;6.20;;;3.40;;
49592;SDS011;35499;51.482;4.264;2022-07-19T06:42:35;8.10;;;3.30;;
49592;SDS011;35499;51.482;4.264;2022-07-19T06:45:19;5.05;;;3.28;;
49592;SDS011;35499;51.482;4.264;2022-07-19T06:48:03;6.00;;;3.35;;
49592;SDS011;35499;51.482;4.264;2022-07-19T06:53:31;4.80;;;3.00;;
49592;SDS011;35499;51.482;4.264;2022-07-19T06:56:15;5.07;;;3.10;;
49592;SDS011;35499;51.482;4.264;2022-07-19T06:59:00;5.32;;;3.25;;
49592;SDS011;35499;51.482;4.264;2022-07-19T07:01:43;3.70;;;2.92;;
49592;SDS011;35499;51.482;4.264;2022-07-19T07:04:27;4.28;;;3.13;;
49592;SDS011;35499;51.482;4.264;2022-07-19T07:07:12;4.15;;;2.97;;
49592;SDS011;35499;51.482;4.264;2022-07-19T07:09:56;6.88;;;2.40;;
49592;SDS011;35499;51.482;4.264;2022-07-19T07:12:40;6.75;;;2.70;;
49592;SDS011;35499;51.482;4.264;2022-07-19T07:15:24;5.05;;;2.95;;
49592;SDS011;35499;51.482;4.264;2022-07-19T07:18:08;4.85;;;3.63;;
49592;SDS011;35499;51.482;4.264;2022-07-19T07:20:52;3.78;;;2.92;;
49592;SDS011;35499;51.482;4.264;2022-07-19T07:23:36;4.32;;;2.60;;
49592;SDS011;35499;51.482;4.264;2022-07-19T07:26:20;4.43;;;2.90;;
49592;SDS011;35499;51.482;4.264;2022-07-19T07:29:03;4.10;;;2.60;;
49592;SDS011;35499;51.482;4.264;2022-07-19T07:31:48;4.22;;;2.50;;
49592;SDS011;35499;51.482;4.264;2022-07-19T07:34:32;3.92;;;2.55;;
49592;SDS011;35499;51.482;4.264;2022-07-19T07:37:16;4.38;;;2.70;;
49592;SDS011;35499;51.482;4.264;2022-07-19T07:40:00;3.67;;;2.40;;
49592;SDS011;35499;51.482;4.264;2022-07-19T07:42:44;4.32;;;2.47;;
49592;SDS011;35499;51.482;4.264;2022-07-19T07:45:28;6.03;;;2.50;;
49592;SDS011;35499;51.482;4.264;2022-07-19T07:48:13;8.60;;;3.00;;
49592;SDS011;35499;51.482;4.264;2022-07-19T07:50:57;3.53;;;2.42;;
49592;SDS011;35499;51.482;4.264;2022-07-19T07:53:41;4.82;;;2.63;;
49592;SDS011;35499;51.482;4.264;2022-07-19T07:56:25;4.50;;;2.65;;
49592;SDS011;35499;51.482;4.264;2022-07-19T07:59:09;3.47;;;2.47;;
49592;SDS011;35499;51.482;4.264;2022-07-19T08:01:53;5.88;;;2.53;;
49592;SDS011;35499;51.482;4.264;2022-07-19T08:04:37;3.55;;;2.50;;
49592;SDS011;35499;51.482;4.264;2022-07-19T08:07:21;7.07;;;2.40;;
49592;SDS011;35499;51.482;4.264;2022-07-19T08:10:06;3.75;;;2.35;;
49592;SDS011;35499;51.482;4.264;2022-07-19T08:12:51;3.80;;;2.28;;
49592;SDS011;35499;51.482;4.264;2022-07-19T08:15:36;6.43;;;2.90;;
49592;SDS011;35499;51.482;4.264;2022-07-19T08:18:21;5.13;;;2.97;;
49592;SDS011;35499;51.482;4.264;2022-07-19T08:21:05;6.22;;;2.85;;
49592;SDS011;35499;51.482;4.264;2022-07-19T08:23:49;6.43;;;2.92;;
49592;SDS011;35499;51.482;4.264;2022-07-19T08:26:33;6.30;;;2.60;;
49592;SDS011;35499;51.482;4.264;2022-07-19T08:29:17;5.55;;;2.85;;
49592;SDS011;35499;51.482;4.264;2022-07-19T08:32:01;6.53;;;3.08;;
49592;SDS011;35499;51.482;4.264;2022-07-19T08:34:45;5.68;;;2.80;;
49592;SDS011;35499;51.482;4.264;2022-07-19T08:37:29;7.13;;;2.90;;
49592;SDS011;35499;51.482;4.264;2022-07-19T08:40:13;6.30;;;3.38;;
49592;SDS011;35499;51.482;4.264;2022-07-19T08:42:57;8.20;;;3.47;;
49592;SDS011;35499;51.482;4.264;2022-07-19T08:45:42;5.82;;;3.40;;
49592;SDS011;35499;51.482;4.264;2022-07-19T08:48:26;5.63;;;2.40;;
49592;SDS011;35499;51.482;4.264;2022-07-19T08:51:10;8.07;;;3.15;;
49592;SDS011;35499;51.482;4.264;2022-07-19T08:53:55;4.05;;;2.90;;
49592;SDS011;35499;51.482;4.264;2022-07-19T08:56:39;7.55;;;2.53;;
49592;SDS011;35499;51.482;4.264;2022-07-19T09:00:04;7.03;;;2.80;;
49592;SDS011;35499;51.482;4.264;2022-07-19T09:02:56;4.63;;;2.83;;
49592;SDS011;35499;51.482;4.264;2022-07-19T09:05:40;9.13;;;2.75;;
49592;SDS011;35499;51.482;4.264;2022-07-19T09:08:24;12.10;;;2.80;;
49592;SDS011;35499;51.482;4.264;2022-07-19T09:11:08;5.75;;;2.28;;
49592;SDS011;35499;51.482;4.264;2022-07-19T09:14:03;4.72;;;2.55;;
49592;SDS011;35499;51.482;4.264;2022-07-19T09:16:48;6.78;;;2.78;;
49592;SDS011;35499;51.482;4.264;2022-07-19T09:22:17;11.50;;;2.90;;
49592;SDS011;35499;51.482;4.264;2022-07-19T09:25:01;9.07;;;2.75;;
49592;SDS011;35499;51.482;4.264;2022-07-19T09:27:56;4.90;;;2.70;;
49592;SDS011;35499;51.482;4.264;2022-07-19T09:30:44;5.83;;;3.00;;
49592;SDS011;35499;51.482;4.264;2022-07-19T09:33:29;4.93;;;2.78;;
49592;SDS011;35499;51.482;4.264;2022-07-19T09:36:13;5.07;;;2.33;;
49592;SDS011;35499;51.482;4.264;2022-07-19T09:38:58;9.50;;;2.50;;
49592;SDS011;35499;51.482;4.264;2022-07-19T09:41:54;3.90;;;2.20;;
49592;SDS011;35499;51.482;4.264;2022-07-19T09:44:38;4.10;;;2.47;;
49592;SDS011;35499;51.482;4.264;2022-07-19T09:47:29;4.32;;;2.15;;
49592;SDS011;35499;51.482;4.264;2022-07-19T09:50:15;4.18;;;2.35;;
49592;SDS011;35499;51.482;4.264;2022-07-19T09:53:04;4.55;;;2.17;;
49592;SDS011;35499;51.482;4.264;2022-07-19T09:55:48;3.88;;;2.13;;
49592;SDS011;35499;51.482;4.264;2022-07-19T10:01:17;8.50;;;2.50;;
49592;SDS011;35499;51.482;4.264;2022-07-19T10:04:03;5.78;;;2.00;;
49592;SDS011;35499;51.482;4.264;2022-07-19T11:04:25;2.92;;;1.63;;
49592;SDS011;35499;51.482;4.264;2022-07-19T11:07:13;4.63;;;2.00;;
49592;SDS011;35499;51.482;4.264;2022-07-19T11:09:58;4.25;;;1.67;;
49592;SDS011;35499;51.482;4.264;2022-07-19T11:12:42;4.00;;;2.13;;
49592;SDS011;35499;51.482;4.264;2022-07-19T11:15:28;4.35;;;1.98;;
49592;SDS011;35499;51.482;4.264;2022-07-19T11:18:12;3.25;;;1.80;;
49592;SDS011;35499;51.482;4.264;2022-07-19T11:20:57;5.53;;;2.10;;
49592;SDS011;35499;51.482;4.264;2022-07-19T11:23:42;5.10;;;1.67;;
49592;SDS011;35499;51.482;4.264;2022-07-19T11:26:26;4.80;;;1.52;;
49592;SDS011;35499;51.482;4.264;2022-07-19T11:29:17;3.55;;;1.60;;
49592;SDS011;35499;51.482;4.264;2022-07-19T11:32:01;4.65;;;1.85;;
49592;SDS011;35499;51.482;4.264;2022-07-19T11:34:56;3.08;;;1.70;;
49592;SDS011;35499;51.482;4.264;2022-07-19T11:37:40;5.25;;;1.70;;
49592;SDS011;35499;51.482;4.264;2022-07-19T11:40:25;3.70;;;1.83;;
49592;SDS011;35499;51.482;4.264;2022-07-19T11:43:14;4.45;;;1.70;;
49592;SDS011;35499;51.482;4.264;2022-07-19T11:45:58;3.65;;;1.73;;
49592;SDS011;35499;51.482;4.264;2022-07-19T11:48:42;3.45;;;1.70;;
49592;SDS011;35499;51.482;4.264;2022-07-19T11:51:27;3.53;;;1.70;;
49592;SDS011;35499;51.482;4.264;2022-07-19T11:54:11;2.78;;;1.80;;
49592;SDS011;35499;51.482;4.264;2022-07-19T11:56:55;4.15;;;1.60;;
49592;SDS011;35499;51.482;4.264;2022-07-19T11:59:39;3.92;;;1.83;;
49592;SDS011;35499;51.482;4.264;2022-07-19T12:02:23;3.70;;;1.80;;
49592;SDS011;35499;51.482;4.264;2022-07-19T12:05:13;2.90;;;1.60;;
49592;SDS011;35499;51.482;4.264;2022-07-19T12:07:58;6.00;;;1.92;;
49592;SDS011;35499;51.482;4.264;2022-07-19T12:10:46;5.20;;;1.58;;
49592;SDS011;35499;51.482;4.264;2022-07-19T12:13:33;2.72;;;1.48;;
49592;SDS011;35499;51.482;4.264;2022-07-19T12:16:17;6.05;;;2.33;;
49592;SDS011;35499;51.482;4.264;2022-07-19T12:19:09;2.80;;;1.63;;
49592;SDS011;35499;51.482;4.264;2022-07-19T12:21:53;5.32;;;1.98;;
49592;SDS011;35499;51.482;4.264;2022-07-19T12:24:46;6.38;;;1.83;;
49592;SDS011;35499;51.482;4.264;2022-07-19T12:27:30;3.97;;;1.75;;
49592;SDS011;35499;51.482;4.264;2022-07-19T12:30:18;3.20;;;1.70;;
49592;SDS011;35499;51.482;4.264;2022-07-19T12:33:09;3.75;;;1.90;;
49592;SDS011;35499;51.482;4.264;2022-07-19T12:35:53;3.88;;;1.77;;
49592;SDS011;35499;51.482;4.264;2022-07-19T12:38:37;2.95;;;1.42;;
49592;SDS011;35499;51.482;4.264;2022-07-19T12:41:21;5.03;;;1.80;;
49592;SDS011;35499;51.482;4.264;2022-07-19T12:44:05;3.13;;;1.70;;
49592;SDS011;35499;51.482;4.264;2022-07-19T12:46:50;3.33;;;1.92;;
49592;SDS011;35499;51.482;4.264;2022-07-19T12:49:43;8.77;;;3.05;;
49592;SDS011;35499;51.482;4.264;2022-07-19T12:52:28;3.88;;;1.80;;
49592;SDS011;35499;51.482;4.264;2022-07-19T12:55:12;5.18;;;2.05;;
49592;SDS011;35499;51.482;4.264;2022-07-19T12:57:57;6.55;;;2.10;;
49592;SDS011;35499;51.482;4.264;2022-07-19T13:00:41;4.82;;;1.95;;
49592;SDS011;35499;51.482;4.264;2022-07-19T13:03:25;3.22;;;1.98;;
49592;SDS011;35499;51.482;4.264;2022-07-19T13:06:09;3.53;;;1.88;;
49592;SDS011;35499;51.482;4.264;2022-07-19T13:08:53;4.55;;;1.80;;
49592;SDS011;35499;51.482;4.264;2022-07-19T13:11:37;3.97;;;1.75;;
49592;SDS011;35499;51.482;4.264;2022-07-19T13:14:21;3.83;;;1.80;;
49592;SDS011;35499;51.482;4.264;2022-07-19T13:17:07;3.95;;;2.00;;
49592;SDS011;35499;51.482;4.264;2022-07-19T13:19:54;3.25;;;1.83;;
49592;SDS011;35499;51.482;4.264;2022-07-19T13:22:38;5.60;;;2.83;;
49592;SDS011;35499;51.482;4.264;2022-07-19T13:25:23;3.70;;;2.20;;
49592;SDS011;35499;51.482;4.264;2022-07-19T13:28:07;4.93;;;1.90;;
49592;SDS011;35499;51.482;4.264;2022-07-19T13:30:51;5.60;;;2.08;;
49592;SDS011;35499;51.482;4.264;2022-07-19T13:33:35;4.40;;;1.98;;
49592;SDS011;35499;51.482;4.264;2022-07-19T13:36:19;5.28;;;2.10;;
49592;SDS011;35499;51.482;4.264;2022-07-19T13:39:03;7.35;;;3.35;;
49592;SDS011;35499;51.482;4.264;2022-07-19T13:41:47;5.63;;;2.83;;
49592;SDS011;35499;51.482;4.264;2022-07-19T13:47:15;6.55;;;2.00;;
49592;SDS011;35499;51.482;4.264;2022-07-19T13:49:59;3.65;;;2.03;;
49592;SDS011;35499;51.482;4.264;2022-07-19T13:52:43;4.45;;;2.20;;
49592;SDS011;35499;51.482;4.264;2022-07-19T13:55:27;4.40;;;2.42;;
49592;SDS011;35499;51.482;4.264;2022-07-19T13:58:11;5.35;;;2.10;;
49592;SDS011;35499;51.482;4.264;2022-07-19T14:00:55;5.07;;;2.05;;
49592;SDS011;35499;51.482;4.264;2022-07-19T14:39:13;7.07;;;2.30;;
49592;SDS011;35499;51.482;4.264;2022-07-19T14:41:58;5.18;;;2.10;;
49592;SDS011;35499;51.482;4.264;2022-07-19T15:03:51;5.03;;;2.28;;
49592;SDS011;35499;51.482;4.264;2022-07-19T15:06:35;4.68;;;2.30;;
49592;SDS011;35499;51.482;4.264;2022-07-19T15:09:19;4.68;;;2.60;;
49592;SDS011;35499;51.482;4.264;2022-07-19T15:12:03;4.22;;;2.50;;
49592;SDS011;35499;51.482;4.264;2022-07-19T15:14:47;19.13;;;3.35;;
49592;SDS011;35499;51.482;4.264;2022-07-19T15:17:31;3.33;;;2.00;;
49592;SDS011;35499;51.482;4.264;2022-07-19T22:04:36;7.18;;;4.35;;
49592;SDS011;35499;51.482;4.264;2022-07-19T22:07:20;7.63;;;4.60;;
49592;SDS011;35499;51.482;4.264;2022-07-19T22:10:04;7.18;;;4.03;;
49592;SDS011;35499;51.482;4.264;2022-07-19T22:12:48;10.25;;;4.57;;
49592;SDS011;35499;51.482;4.264;2022-07-19T22:15:32;5.47;;;4.40;;
49592;SDS011;35499;51.482;4.264;2022-07-19T22:18:16;5.15;;;4.18;;
49592;SDS011;35499;51.482;4.264;2022-07-19T22:21:01;7.57;;;4.15;;
49592;SDS011;35499;51.482;4.264;2022-07-19T22:23:45;9.68;;;4.57;;
49592;SDS011;35499;51.482;4.264;2022-07-19T22:26:29;8.90;;;4.10;;
49592;SDS011;35499;51.482;4.264;2022-07-19T22:29:13;8.45;;;4.38;;
49592;SDS011;35499;51.482;4.264;2022-07-19T22:31:57;5.72;;;4.13;;
49592;SDS011;35499;51.482;4.264;2022-07-19T22:34:41;8.30;;;4.75;;
49592;SDS011;35499;51.482;4.264;2022-07-19T22:37:24;9.98;;;4.38;;
49592;SDS011;35499;51.482;4.264;2022-07-19T22:40:09;7.78;;;4.82;;
49592;SDS011;35499;51.482;4.264;2022-07-19T22:42:52;7.90;;;4.30;;
49592;SDS011;35499;51.482;4.264;2022-07-19T22:45:36;8.90;;;4.25;;
49592;SDS011;35499;51.482;4.264;2022-07-19T22:48:21;7.45;;;4.63;;
49592;SDS011;35499;51.482;4.264;2022-07-19T22:51:05;5.63;;;4.70;;
49592;SDS011;35499;51.482;4.264;2022-07-19T22:53:49;6.28;;;4.05;;
49592;SDS011;35499;51.482;4.264;2022-07-19T22:56:33;6.53;;;4.03;;
49592;SDS011;35499;51.482;4.264;2022-07-19T22:59:17;5.43;;;4.22;;
49592;SDS011;35499;51.482;4.264;2022-07-19T23:02:01;7.05;;;4.30;;
49592;SDS011;35499;51.482;4.264;2022-07-19T23:04:45;6.10;;;4.30;;
49592;SDS011;35499;51.482;4.264;2022-07-19T23:07:29;5.57;;;4.28;;
49592;SDS011;35499;51.482;4.264;2022-07-19T23:10:13;7.25;;;4.53;;
49592;SDS011;35499;51.482;4.264;2022-07-19T23:12:57;6.38;;;4.53;;
49592;SDS011;35499;51.482;4.264;2022-07-19T23:15:41;6.43;;;4.18;;
49592;SDS011;35499;51.482;4.264;2022-07-19T23:18:25;6.47;;;4.57;;
49592;SDS011;35499;51.482;4.264;2022-07-19T23:21:09;6.38;;;4.80;;
49592;SDS011;35499;51.482;4.264;2022-07-19T23:23:53;7.25;;;4.72;;
49592;SDS011;35499;51.482;4.264;2022-07-19T23:26:37;8.60;;;4.85;;
49592;SDS011;35499;51.482;4.264;2022-07-19T23:29:21;8.23;;;5.03;;
49592;SDS011;35499;51.482;4.264;2022-07-19T23:32:05;8.75;;;4.93;;
49592;SDS011;35499;51.482;4.264;2022-07-19T23:34:49;8.52;;;5.10;;
49592;SDS011;35499;51.482;4.264;2022-07-19T23:37:33;8.00;;;5.63;;
49592;SDS011;35499;51.482;4.264;2022-07-19T23:40:17;5.80;;;4.80;;
49592;SDS011;35499;51.482;4.264;2022-07-19T23:43:01;6.70;;;5.18;;
49592;SDS011;35499;51.482;4.264;2022-07-19T23:45:45;8.73;;;5.30;;
49592;SDS011;35499;51.482;4.264;2022-07-19T23:48:29;7.15;;;5.43;;
49592;SDS011;35499;51.482;4.264;2022-07-19T23:51:13;6.30;;;5.53;;
49592;SDS011;35499;51.482;4.264;2022-07-19T23:53:57;7.88;;;6.10;;
49592;SDS011;35499;51.482;4.264;2022-07-19T23:56:41;7.85;;;6.05;;
49592;SDS011;35499;51.482;4.264;2022-07-19T23:59:25;6.97;;;5.85;;
